sensor_id;sensor_type;location;lat;lon;timestamp;temperature;humidity
75296;DHT22;64623;44.738;37.804;2023-06-26T00:00:12;9.53;118.99
75296;DHT22;64623;44.738;37.804;2023-06-26T00:01:15;9.22;118.99
75296;DHT22;64623;44.738;37.804;2023-06-26T00:02:18;9.48;118.99
75296;DHT22;64623;44.738;37.804;2023-06-26T00:03:21;9.46;118.99
75296;DHT22;64623;44.738;37.804;2023-06-26T00:04:25;9.42;118.99
75296;DHT22;64623;44.738;37.804;2023-06-26T00:05:29;9.31;118.99
75296;DHT22;64623;44.738;37.804;2023-06-26T00:06:33;9.09;118.99
75296;DHT22;64623;44.738;37.804;2023-06-26T00:07:36;9.34;118.99
75296;DHT22;64623;44.738;37.804;2023-06-26T00:08:39;9.30;118.99
75296;DHT22;64623;44.738;37.804;2023-06-26T00:09:42;9.44;118.99
75296;DHT22;64623;44.738;37.804;2023-06-26T00:10:45;9.49;118.99
75296;DHT22;64623;44.738;37.804;2023-06-26T00:11:49;9.63;118.99
75296;DHT22;64623;44.738;37.804;2023-06-26T00:12:52;9.53;118.99
75296;DHT22;64623;44.738;37.804;2023-06-26T00:13:55;9.62;118.99
75296;DHT22;64623;44.738;37.804;2023-06-26T00:14:58;9.46;118.99
75296;DHT22;64623;44.738;37.804;2023-06-26T00:16:01;9.24;118.99
75296;DHT22;64623;44.738;37.804;2023-06-26T00:17:06;9.23;118.99
75296;DHT22;64623;44.738;37.804;2023-06-26T00:18:09;9.16;118.99
75296;DHT22;64623;44.738;37.804;2023-06-26T00:19:13;9.02;118.99
75296;DHT22;64623;44.738;37.804;2023-06-26T00:20:16;9.48;118.99
75296;DHT22;64623;44.738;37.804;2023-06-26T00:21:21;9.05;118.99
75296;DHT22;64623;44.738;37.804;2023-06-26T00:22:24;9.12;118.99
75296;DHT22;64623;44.738;37.804;2023-06-26T00:23:27;9.12;118.99
75296;DHT22;64623;44.738;37.804;2023-06-26T00:24:31;9.22;118.99
75296;DHT22;64623;44.738;37.804;2023-06-26T00:25:34;9.56;118.99
75296;DHT22;64623;44.738;37.804;2023-06-26T00:26:37;9.63;118.99
75296;DHT22;64623;44.738;37.804;2023-06-26T00:27:40;9.48;118.99
75296;DHT22;64623;44.738;37.804;2023-06-26T00:28:44;9.82;118.99
75296;DHT22;64623;44.738;37.804;2023-06-26T00:29:47;9.61;118.99
75296;DHT22;64623;44.738;37.804;2023-06-26T00:30:50;9.70;118.99
75296;DHT22;64623;44.738;37.804;2023-06-26T00:31:53;9.56;118.99
75296;DHT22;64623;44.738;37.804;2023-06-26T00:32:56;9.34;118.99
75296;DHT22;64623;44.738;37.804;2023-06-26T00:33:59;9.27;118.99
75296;DHT22;64623;44.738;37.804;2023-06-26T00:35:02;8.94;118.99
75296;DHT22;64623;44.738;37.804;2023-06-26T00:36:05;8.94;118.99
75296;DHT22;64623;44.738;37.804;2023-06-26T00:37:08;8.91;118.99
75296;DHT22;64623;44.738;37.804;2023-06-26T00:38:11;9.20;118.99
75296;DHT22;64623;44.738;37.804;2023-06-26T00:39:15;9.14;118.99
75296;DHT22;64623;44.738;37.804;2023-06-26T00:40:18;9.12;118.99
75296;DHT22;64623;44.738;37.804;2023-06-26T00:41:21;9.34;118.99
75296;DHT22;64623;44.738;37.804;2023-06-26T00:42:25;9.54;118.99
75296;DHT22;64623;44.738;37.804;2023-06-26T00:43:28;9.34;118.99
75296;DHT22;64623;44.738;37.804;2023-06-26T00:44:31;9.30;118.99
75296;DHT22;64623;44.738;37.804;2023-06-26T00:45:35;9.44;118.99
75296;DHT22;64623;44.738;37.804;2023-06-26T00:46:43;9.35;118.99
75296;DHT22;64623;44.738;37.804;2023-06-26T00:47:46;9.07;118.99
75296;DHT22;64623;44.738;37.804;2023-06-26T00:48:50;9.14;118.99
75296;DHT22;64623;44.738;37.804;2023-06-26T00:49:54;9.17;118.99
75296;DHT22;64623;44.738;37.804;2023-06-26T00:50:58;9.33;118.99
75296;DHT22;64623;44.738;37.804;2023-06-26T00:52:01;9.18;118.99
75296;DHT22;64623;44.738;37.804;2023-06-26T00:53:06;9.19;118.99
75296;DHT22;64623;44.738;37.804;2023-06-26T00:54:09;9.22;118.99
75296;DHT22;64623;44.738;37.804;2023-06-26T00:55:13;9.25;118.99
75296;DHT22;64623;44.738;37.804;2023-06-26T00:56:19;9.27;118.99
75296;DHT22;64623;44.738;37.804;2023-06-26T00:57:22;9.34;118.99
75296;DHT22;64623;44.738;37.804;2023-06-26T00:58:26;9.29;118.99
75296;DHT22;64623;44.738;37.804;2023-06-26T00:59:29;9.09;118.99
75296;DHT22;64623;44.738;37.804;2023-06-26T01:00:32;9.23;118.99
75296;DHT22;64623;44.738;37.804;2023-06-26T01:01:35;9.21;118.99
75296;DHT22;64623;44.738;37.804;2023-06-26T01:02:38;9.41;118.99
75296;DHT22;64623;44.738;37.804;2023-06-26T01:03:44;9.07;118.99
75296;DHT22;64623;44.738;37.804;2023-06-26T01:04:52;8.97;118.99
75296;DHT22;64623;44.738;37.804;2023-06-26T01:05:56;9.29;118.99
75296;DHT22;64623;44.738;37.804;2023-06-26T01:07:02;9.46;118.99
75296;DHT22;64623;44.738;37.804;2023-06-26T01:08:07;9.82;118.99
75296;DHT22;64623;44.738;37.804;2023-06-26T01:09:11;9.30;118.99
75296;DHT22;64623;44.738;37.804;2023-06-26T01:10:15;9.47;118.99
75296;DHT22;64623;44.738;37.804;2023-06-26T01:11:18;9.36;118.99
75296;DHT22;64623;44.738;37.804;2023-06-26T01:12:22;9.22;118.99
75296;DHT22;64623;44.738;37.804;2023-06-26T01:13:25;9.11;118.99
75296;DHT22;64623;44.738;37.804;2023-06-26T01:14:28;9.24;118.99
75296;DHT22;64623;44.738;37.804;2023-06-26T01:15:31;9.46;118.99
75296;DHT22;64623;44.738;37.804;2023-06-26T01:16:35;9.60;118.99
75296;DHT22;64623;44.738;37.804;2023-06-26T01:17:41;9.35;118.99
75296;DHT22;64623;44.738;37.804;2023-06-26T01:18:48;9.61;118.99
75296;DHT22;64623;44.738;37.804;2023-06-26T01:19:51;9.47;118.99
75296;DHT22;64623;44.738;37.804;2023-06-26T01:20:58;9.47;118.99
75296;DHT22;64623;44.738;37.804;2023-06-26T01:22:31;9.41;118.99
75296;DHT22;64623;44.738;37.804;2023-06-26T01:26:30;9.14;118.99
75296;DHT22;64623;44.738;37.804;2023-06-26T01:27:38;9.12;118.99
75296;DHT22;64623;44.738;37.804;2023-06-26T01:28:42;9.18;118.99
75296;DHT22;64623;44.738;37.804;2023-06-26T01:29:46;9.17;118.99
75296;DHT22;64623;44.738;37.804;2023-06-26T01:30:50;9.20;118.99
75296;DHT22;64623;44.738;37.804;2023-06-26T01:31:54;9.20;118.99
75296;DHT22;64623;44.738;37.804;2023-06-26T01:32:57;9.33;118.99
75296;DHT22;64623;44.738;37.804;2023-06-26T01:34:01;9.09;118.99
75296;DHT22;64623;44.738;37.804;2023-06-26T01:35:06;9.23;118.99
75296;DHT22;64623;44.738;37.804;2023-06-26T01:36:10;9.06;118.99
75296;DHT22;64623;44.738;37.804;2023-06-26T01:37:13;9.20;118.99
75296;DHT22;64623;44.738;37.804;2023-06-26T01:38:18;9.25;118.99
75296;DHT22;64623;44.738;37.804;2023-06-26T01:39:21;9.01;118.99
75296;DHT22;64623;44.738;37.804;2023-06-26T01:40:25;8.97;118.99
75296;DHT22;64623;44.738;37.804;2023-06-26T01:41:30;8.90;118.99
75296;DHT22;64623;44.738;37.804;2023-06-26T01:42:34;8.76;118.99
75296;DHT22;64623;44.738;37.804;2023-06-26T01:45:24;8.87;118.99
75296;DHT22;64623;44.738;37.804;2023-06-26T01:47:40;8.86;118.99
75296;DHT22;64623;44.738;37.804;2023-06-26T01:49:01;9.07;118.99
75296;DHT22;64623;44.738;37.804;2023-06-26T01:50:12;9.12;118.99
75296;DHT22;64623;44.738;37.804;2023-06-26T01:51:17;9.21;118.99
75296;DHT22;64623;44.738;37.804;2023-06-26T01:53:46;9.20;118.99
75296;DHT22;64623;44.738;37.804;2023-06-26T01:55:01;9.03;118.99
75296;DHT22;64623;44.738;37.804;2023-06-26T01:56:13;8.89;118.99
75296;DHT22;64623;44.738;37.804;2023-06-26T01:57:17;9.22;118.99
75296;DHT22;64623;44.738;37.804;2023-06-26T01:58:24;9.03;118.99
75296;DHT22;64623;44.738;37.804;2023-06-26T01:59:30;8.92;118.99
75296;DHT22;64623;44.738;37.804;2023-06-26T02:00:34;9.00;118.99
75296;DHT22;64623;44.738;37.804;2023-06-26T02:01:39;8.97;118.99
75296;DHT22;64623;44.738;37.804;2023-06-26T02:02:42;8.92;118.99
75296;DHT22;64623;44.738;37.804;2023-06-26T02:03:48;9.07;118.99
75296;DHT22;64623;44.738;37.804;2023-06-26T02:04:51;8.73;118.99
75296;DHT22;64623;44.738;37.804;2023-06-26T02:05:55;8.92;118.99
75296;DHT22;64623;44.738;37.804;2023-06-26T02:06:58;8.91;118.99
75296;DHT22;64623;44.738;37.804;2023-06-26T02:08:03;8.81;118.99
75296;DHT22;64623;44.738;37.804;2023-06-26T02:09:06;9.12;118.99
75296;DHT22;64623;44.738;37.804;2023-06-26T02:10:11;9.00;118.99
75296;DHT22;64623;44.738;37.804;2023-06-26T02:11:15;8.82;118.99
75296;DHT22;64623;44.738;37.804;2023-06-26T02:12:18;9.02;118.99
75296;DHT22;64623;44.738;37.804;2023-06-26T02:13:21;8.94;118.99
75296;DHT22;64623;44.738;37.804;2023-06-26T02:14:24;8.85;118.99
75296;DHT22;64623;44.738;37.804;2023-06-26T02:15:27;8.90;118.99
75296;DHT22;64623;44.738;37.804;2023-06-26T02:16:30;8.65;118.99
75296;DHT22;64623;44.738;37.804;2023-06-26T02:17:33;8.67;118.99
75296;DHT22;64623;44.738;37.804;2023-06-26T02:18:37;8.80;118.99
75296;DHT22;64623;44.738;37.804;2023-06-26T02:19:40;8.85;118.99
75296;DHT22;64623;44.738;37.804;2023-06-26T02:20:50;8.70;118.99
75296;DHT22;64623;44.738;37.804;2023-06-26T02:21:54;8.74;118.99
75296;DHT22;64623;44.738;37.804;2023-06-26T02:22:59;8.72;118.99
75296;DHT22;64623;44.738;37.804;2023-06-26T02:24:02;8.79;118.99
75296;DHT22;64623;44.738;37.804;2023-06-26T02:25:09;8.82;118.99
75296;DHT22;64623;44.738;37.804;2023-06-26T02:26:13;8.62;118.99
75296;DHT22;64623;44.738;37.804;2023-06-26T02:27:17;8.67;118.99
75296;DHT22;64623;44.738;37.804;2023-06-26T02:28:20;8.71;118.99
75296;DHT22;64623;44.738;37.804;2023-06-26T02:29:23;8.64;118.99
75296;DHT22;64623;44.738;37.804;2023-06-26T02:30:26;8.65;118.99
75296;DHT22;64623;44.738;37.804;2023-06-26T02:31:30;8.46;118.99
75296;DHT22;64623;44.738;37.804;2023-06-26T02:32:33;8.72;118.99
75296;DHT22;64623;44.738;37.804;2023-06-26T02:33:36;9.04;118.99
75296;DHT22;64623;44.738;37.804;2023-06-26T02:34:39;8.81;118.99
75296;DHT22;64623;44.738;37.804;2023-06-26T02:35:42;8.89;118.99
75296;DHT22;64623;44.738;37.804;2023-06-26T02:36:45;8.64;118.99
75296;DHT22;64623;44.738;37.804;2023-06-26T02:37:49;8.74;118.99
75296;DHT22;64623;44.738;37.804;2023-06-26T02:38:53;8.79;118.99
75296;DHT22;64623;44.738;37.804;2023-06-26T02:39:56;9.14;118.99
75296;DHT22;64623;44.738;37.804;2023-06-26T02:40:59;9.15;118.99
75296;DHT22;64623;44.738;37.804;2023-06-26T02:42:02;9.05;118.99
75296;DHT22;64623;44.738;37.804;2023-06-26T02:43:06;9.24;118.99
75296;DHT22;64623;44.738;37.804;2023-06-26T02:44:09;9.11;118.99
75296;DHT22;64623;44.738;37.804;2023-06-26T02:45:14;8.98;118.99
75296;DHT22;64623;44.738;37.804;2023-06-26T02:46:18;9.14;118.99
75296;DHT22;64623;44.738;37.804;2023-06-26T02:47:21;9.21;118.99
75296;DHT22;64623;44.738;37.804;2023-06-26T02:48:24;9.20;118.99
75296;DHT22;64623;44.738;37.804;2023-06-26T02:49:27;9.27;118.99
75296;DHT22;64623;44.738;37.804;2023-06-26T02:50:30;9.19;118.99
75296;DHT22;64623;44.738;37.804;2023-06-26T02:51:42;9.07;118.99
75296;DHT22;64623;44.738;37.804;2023-06-26T02:52:51;9.18;118.99
75296;DHT22;64623;44.738;37.804;2023-06-26T02:53:57;8.94;118.99
75296;DHT22;64623;44.738;37.804;2023-06-26T02:55:00;9.31;118.99
75296;DHT22;64623;44.738;37.804;2023-06-26T02:56:04;9.00;118.99
75296;DHT22;64623;44.738;37.804;2023-06-26T02:57:07;9.26;118.99
75296;DHT22;64623;44.738;37.804;2023-06-26T02:58:10;8.83;118.99
75296;DHT22;64623;44.738;37.804;2023-06-26T02:59:14;8.90;118.99
75296;DHT22;64623;44.738;37.804;2023-06-26T03:00:17;9.01;118.99
75296;DHT22;64623;44.738;37.804;2023-06-26T03:01:24;9.02;118.99
75296;DHT22;64623;44.738;37.804;2023-06-26T03:02:27;9.00;118.99
75296;DHT22;64623;44.738;37.804;2023-06-26T03:03:30;9.01;118.99
75296;DHT22;64623;44.738;37.804;2023-06-26T03:04:47;8.97;118.99
75296;DHT22;64623;44.738;37.804;2023-06-26T03:05:52;9.24;118.99
75296;DHT22;64623;44.738;37.804;2023-06-26T03:06:56;9.30;118.99
75296;DHT22;64623;44.738;37.804;2023-06-26T03:07:59;9.15;118.99
75296;DHT22;64623;44.738;37.804;2023-06-26T03:09:02;9.15;118.99
75296;DHT22;64623;44.738;37.804;2023-06-26T03:10:06;9.35;118.99
75296;DHT22;64623;44.738;37.804;2023-06-26T03:11:10;9.40;118.99
75296;DHT22;64623;44.738;37.804;2023-06-26T03:12:14;9.30;118.99
75296;DHT22;64623;44.738;37.804;2023-06-26T03:13:18;9.46;118.99
75296;DHT22;64623;44.738;37.804;2023-06-26T03:14:22;9.37;118.99
75296;DHT22;64623;44.738;37.804;2023-06-26T03:15:25;9.31;118.99
75296;DHT22;64623;44.738;37.804;2023-06-26T03:16:29;9.26;118.99
75296;DHT22;64623;44.738;37.804;2023-06-26T03:17:32;9.44;118.99
75296;DHT22;64623;44.738;37.804;2023-06-26T03:18:39;10.04;118.99
75296;DHT22;64623;44.738;37.804;2023-06-26T03:19:43;9.51;118.99
75296;DHT22;64623;44.738;37.804;2023-06-26T03:20:57;9.64;118.99
75296;DHT22;64623;44.738;37.804;2023-06-26T03:22:01;9.59;118.99
75296;DHT22;64623;44.738;37.804;2023-06-26T03:23:04;9.74;118.99
75296;DHT22;64623;44.738;37.804;2023-06-26T03:24:07;9.71;118.99
75296;DHT22;64623;44.738;37.804;2023-06-26T03:25:11;9.69;118.99
75296;DHT22;64623;44.738;37.804;2023-06-26T03:26:14;9.74;118.99
75296;DHT22;64623;44.738;37.804;2023-06-26T03:27:20;9.95;118.99
75296;DHT22;64623;44.738;37.804;2023-06-26T03:28:24;9.72;118.99
75296;DHT22;64623;44.738;37.804;2023-06-26T03:29:27;9.94;118.99
75296;DHT22;64623;44.738;37.804;2023-06-26T03:30:32;9.82;118.99
75296;DHT22;64623;44.738;37.804;2023-06-26T03:31:35;9.69;118.99
75296;DHT22;64623;44.738;37.804;2023-06-26T03:32:38;9.68;118.99
75296;DHT22;64623;44.738;37.804;2023-06-26T03:33:42;9.72;118.99
75296;DHT22;64623;44.738;37.804;2023-06-26T03:34:45;9.80;118.99
75296;DHT22;64623;44.738;37.804;2023-06-26T03:35:48;9.61;118.99
75296;DHT22;64623;44.738;37.804;2023-06-26T03:36:51;9.56;118.99
75296;DHT22;64623;44.738;37.804;2023-06-26T03:37:55;9.75;118.99
75296;DHT22;64623;44.738;37.804;2023-06-26T03:38:58;9.86;118.99
75296;DHT22;64623;44.738;37.804;2023-06-26T03:40:01;9.89;118.99
75296;DHT22;64623;44.738;37.804;2023-06-26T03:41:06;9.81;118.99
75296;DHT22;64623;44.738;37.804;2023-06-26T03:42:09;10.09;118.99
75296;DHT22;64623;44.738;37.804;2023-06-26T03:43:13;9.93;118.99
75296;DHT22;64623;44.738;37.804;2023-06-26T03:44:22;10.09;118.99
75296;DHT22;64623;44.738;37.804;2023-06-26T03:45:25;9.94;118.99
75296;DHT22;64623;44.738;37.804;2023-06-26T03:46:29;9.96;118.99
75296;DHT22;64623;44.738;37.804;2023-06-26T03:47:32;10.10;118.99
75296;DHT22;64623;44.738;37.804;2023-06-26T03:48:37;10.44;118.99
75296;DHT22;64623;44.738;37.804;2023-06-26T03:49:42;10.56;118.99
75296;DHT22;64623;44.738;37.804;2023-06-26T03:50:45;10.58;118.99
75296;DHT22;64623;44.738;37.804;2023-06-26T03:51:48;10.30;118.99
75296;DHT22;64623;44.738;37.804;2023-06-26T03:52:52;10.67;118.99
75296;DHT22;64623;44.738;37.804;2023-06-26T03:53:57;10.72;118.99
75296;DHT22;64623;44.738;37.804;2023-06-26T03:55:01;10.86;118.99
75296;DHT22;64623;44.738;37.804;2023-06-26T03:56:05;10.33;118.99
75296;DHT22;64623;44.738;37.804;2023-06-26T03:57:09;10.44;118.99
75296;DHT22;64623;44.738;37.804;2023-06-26T03:58:12;10.62;118.99
75296;DHT22;64623;44.738;37.804;2023-06-26T03:59:15;10.53;118.99
75296;DHT22;64623;44.738;37.804;2023-06-26T04:00:18;10.65;118.99
75296;DHT22;64623;44.738;37.804;2023-06-26T04:01:22;9.96;118.99
75296;DHT22;64623;44.738;37.804;2023-06-26T04:02:26;10.37;118.99
75296;DHT22;64623;44.738;37.804;2023-06-26T04:03:29;10.46;118.99
75296;DHT22;64623;44.738;37.804;2023-06-26T04:04:33;10.60;118.99
75296;DHT22;64623;44.738;37.804;2023-06-26T04:05:36;10.77;118.99
75296;DHT22;64623;44.738;37.804;2023-06-26T04:06:39;10.89;118.99
75296;DHT22;64623;44.738;37.804;2023-06-26T04:07:42;10.82;118.99
75296;DHT22;64623;44.738;37.804;2023-06-26T04:08:46;10.89;118.99
75296;DHT22;64623;44.738;37.804;2023-06-26T04:09:49;10.77;118.99
75296;DHT22;64623;44.738;37.804;2023-06-26T04:10:52;11.07;118.99
75296;DHT22;64623;44.738;37.804;2023-06-26T04:11:56;11.08;118.99
75296;DHT22;64623;44.738;37.804;2023-06-26T04:12:59;10.78;118.99
75296;DHT22;64623;44.738;37.804;2023-06-26T04:14:03;10.95;118.99
75296;DHT22;64623;44.738;37.804;2023-06-26T04:15:07;10.78;118.99
75296;DHT22;64623;44.738;37.804;2023-06-26T04:16:10;11.01;118.99
75296;DHT22;64623;44.738;37.804;2023-06-26T04:17:14;11.30;118.99
75296;DHT22;64623;44.738;37.804;2023-06-26T04:18:17;11.15;118.99
75296;DHT22;64623;44.738;37.804;2023-06-26T04:19:23;11.18;118.99
75296;DHT22;64623;44.738;37.804;2023-06-26T04:20:26;11.19;118.99
75296;DHT22;64623;44.738;37.804;2023-06-26T04:21:29;11.39;118.99
75296;DHT22;64623;44.738;37.804;2023-06-26T04:22:33;11.46;118.99
75296;DHT22;64623;44.738;37.804;2023-06-26T04:23:37;11.39;118.99
75296;DHT22;64623;44.738;37.804;2023-06-26T04:24:40;11.38;118.99
75296;DHT22;64623;44.738;37.804;2023-06-26T04:25:43;11.40;118.99
75296;DHT22;64623;44.738;37.804;2023-06-26T04:26:46;11.44;118.99
75296;DHT22;64623;44.738;37.804;2023-06-26T04:27:49;11.36;118.99
75296;DHT22;64623;44.738;37.804;2023-06-26T04:28:53;11.02;118.99
75296;DHT22;64623;44.738;37.804;2023-06-26T04:29:56;11.17;118.99
75296;DHT22;64623;44.738;37.804;2023-06-26T04:31:00;11.03;118.99
75296;DHT22;64623;44.738;37.804;2023-06-26T04:32:03;11.44;118.99
75296;DHT22;64623;44.738;37.804;2023-06-26T04:33:06;11.78;118.99
75296;DHT22;64623;44.738;37.804;2023-06-26T04:34:09;11.70;118.99
75296;DHT22;64623;44.738;37.804;2023-06-26T04:35:12;11.64;118.99
75296;DHT22;64623;44.738;37.804;2023-06-26T04:36:16;11.41;118.99
75296;DHT22;64623;44.738;37.804;2023-06-26T04:37:19;11.60;118.99
75296;DHT22;64623;44.738;37.804;2023-06-26T04:38:25;11.64;118.99
75296;DHT22;64623;44.738;37.804;2023-06-26T04:39:28;11.81;118.99
75296;DHT22;64623;44.738;37.804;2023-06-26T04:40:31;11.71;118.99
75296;DHT22;64623;44.738;37.804;2023-06-26T04:41:34;11.59;118.99
75296;DHT22;64623;44.738;37.804;2023-06-26T04:42:38;11.85;118.99
75296;DHT22;64623;44.738;37.804;2023-06-26T04:43:41;11.70;118.99
75296;DHT22;64623;44.738;37.804;2023-06-26T04:44:44;11.75;118.99
75296;DHT22;64623;44.738;37.804;2023-06-26T04:45:47;11.89;118.99
75296;DHT22;64623;44.738;37.804;2023-06-26T04:46:50;11.85;118.99
75296;DHT22;64623;44.738;37.804;2023-06-26T04:47:54;12.01;118.99
75296;DHT22;64623;44.738;37.804;2023-06-26T04:48:59;11.82;118.99
75296;DHT22;64623;44.738;37.804;2023-06-26T04:50:02;11.81;118.99
75296;DHT22;64623;44.738;37.804;2023-06-26T04:51:05;12.18;118.99
75296;DHT22;64623;44.738;37.804;2023-06-26T04:52:08;11.88;118.99
75296;DHT22;64623;44.738;37.804;2023-06-26T04:53:11;12.14;118.99
75296;DHT22;64623;44.738;37.804;2023-06-26T04:54:15;12.26;118.99
75296;DHT22;64623;44.738;37.804;2023-06-26T04:55:18;12.22;118.99
75296;DHT22;64623;44.738;37.804;2023-06-26T04:56:21;11.96;118.99
75296;DHT22;64623;44.738;37.804;2023-06-26T04:57:24;12.55;118.99
75296;DHT22;64623;44.738;37.804;2023-06-26T04:58:27;12.81;118.99
75296;DHT22;64623;44.738;37.804;2023-06-26T04:59:30;12.28;118.99
75296;DHT22;64623;44.738;37.804;2023-06-26T05:00:34;12.05;118.99
75296;DHT22;64623;44.738;37.804;2023-06-26T05:01:39;12.48;118.99
75296;DHT22;64623;44.738;37.804;2023-06-26T05:02:42;12.71;118.99
75296;DHT22;64623;44.738;37.804;2023-06-26T05:03:46;12.37;118.99
75296;DHT22;64623;44.738;37.804;2023-06-26T05:04:50;12.30;118.99
75296;DHT22;64623;44.738;37.804;2023-06-26T05:05:53;12.23;118.99
75296;DHT22;64623;44.738;37.804;2023-06-26T05:06:56;12.17;118.99
75296;DHT22;64623;44.738;37.804;2023-06-26T05:08:13;12.07;118.99
75296;DHT22;64623;44.738;37.804;2023-06-26T05:09:17;12.28;118.99
75296;DHT22;64623;44.738;37.804;2023-06-26T05:10:20;12.32;118.99
75296;DHT22;64623;44.738;37.804;2023-06-26T05:11:24;12.11;118.99
75296;DHT22;64623;44.738;37.804;2023-06-26T05:12:28;12.13;118.99
75296;DHT22;64623;44.738;37.804;2023-06-26T05:13:31;12.08;118.99
75296;DHT22;64623;44.738;37.804;2023-06-26T05:14:34;12.26;118.99
75296;DHT22;64623;44.738;37.804;2023-06-26T05:15:37;12.22;118.99
75296;DHT22;64623;44.738;37.804;2023-06-26T05:16:40;12.28;118.99
75296;DHT22;64623;44.738;37.804;2023-06-26T05:17:43;12.50;118.99
75296;DHT22;64623;44.738;37.804;2023-06-26T05:18:46;12.82;118.99
75296;DHT22;64623;44.738;37.804;2023-06-26T05:19:49;12.86;118.99
75296;DHT22;64623;44.738;37.804;2023-06-26T05:20:53;12.72;118.99
75296;DHT22;64623;44.738;37.804;2023-06-26T05:21:56;12.73;118.99
75296;DHT22;64623;44.738;37.804;2023-06-26T05:22:59;12.74;118.99
75296;DHT22;64623;44.738;37.804;2023-06-26T05:24:03;12.58;118.99
75296;DHT22;64623;44.738;37.804;2023-06-26T05:25:09;12.76;118.99
75296;DHT22;64623;44.738;37.804;2023-06-26T05:26:13;12.61;118.99
75296;DHT22;64623;44.738;37.804;2023-06-26T05:27:16;12.56;118.99
75296;DHT22;64623;44.738;37.804;2023-06-26T05:28:24;12.66;118.99
75296;DHT22;64623;44.738;37.804;2023-06-26T05:29:33;12.42;118.99
75296;DHT22;64623;44.738;37.804;2023-06-26T05:30:38;12.46;118.99
75296;DHT22;64623;44.738;37.804;2023-06-26T05:31:43;12.64;118.99
75296;DHT22;64623;44.738;37.804;2023-06-26T05:32:47;12.35;118.99
75296;DHT22;64623;44.738;37.804;2023-06-26T05:33:52;12.82;118.99
75296;DHT22;64623;44.738;37.804;2023-06-26T05:35:00;13.04;118.99
75296;DHT22;64623;44.738;37.804;2023-06-26T05:36:05;13.02;118.99
75296;DHT22;64623;44.738;37.804;2023-06-26T05:37:11;13.05;118.99
75296;DHT22;64623;44.738;37.804;2023-06-26T05:38:17;13.17;118.99
75296;DHT22;64623;44.738;37.804;2023-06-26T05:39:21;13.24;118.99
75296;DHT22;64623;44.738;37.804;2023-06-26T05:40:24;13.09;118.99
75296;DHT22;64623;44.738;37.804;2023-06-26T05:41:28;12.87;118.99
75296;DHT22;64623;44.738;37.804;2023-06-26T05:42:31;13.29;118.99
75296;DHT22;64623;44.738;37.804;2023-06-26T05:43:34;13.12;118.99
75296;DHT22;64623;44.738;37.804;2023-06-26T05:44:38;13.16;118.99
75296;DHT22;64623;44.738;37.804;2023-06-26T05:45:41;13.03;118.99
75296;DHT22;64623;44.738;37.804;2023-06-26T05:46:45;12.90;118.99
75296;DHT22;64623;44.738;37.804;2023-06-26T05:47:49;12.92;118.99
75296;DHT22;64623;44.738;37.804;2023-06-26T05:48:53;13.00;118.99
75296;DHT22;64623;44.738;37.804;2023-06-26T05:49:56;13.20;118.99
75296;DHT22;64623;44.738;37.804;2023-06-26T05:50:59;13.14;118.99
75296;DHT22;64623;44.738;37.804;2023-06-26T05:52:03;13.26;118.99
75296;DHT22;64623;44.738;37.804;2023-06-26T05:53:06;13.41;118.99
75296;DHT22;64623;44.738;37.804;2023-06-26T05:54:09;13.50;118.99
75296;DHT22;64623;44.738;37.804;2023-06-26T05:55:14;13.41;118.99
75296;DHT22;64623;44.738;37.804;2023-06-26T05:56:18;13.68;118.99
75296;DHT22;64623;44.738;37.804;2023-06-26T05:57:21;13.73;118.99
75296;DHT22;64623;44.738;37.804;2023-06-26T05:58:26;13.73;118.99
75296;DHT22;64623;44.738;37.804;2023-06-26T05:59:32;13.92;118.99
75296;DHT22;64623;44.738;37.804;2023-06-26T06:00:37;14.01;118.99
75296;DHT22;64623;44.738;37.804;2023-06-26T06:01:40;13.95;118.99
75296;DHT22;64623;44.738;37.804;2023-06-26T06:02:43;14.84;118.99
75296;DHT22;64623;44.738;37.804;2023-06-26T06:03:47;13.88;118.99
75296;DHT22;64623;44.738;37.804;2023-06-26T06:04:50;13.71;118.99
75296;DHT22;64623;44.738;37.804;2023-06-26T06:05:53;13.60;118.99
75296;DHT22;64623;44.738;37.804;2023-06-26T06:06:56;13.59;118.99
75296;DHT22;64623;44.738;37.804;2023-06-26T06:07:59;13.80;118.99
75296;DHT22;64623;44.738;37.804;2023-06-26T06:09:02;13.84;118.99
75296;DHT22;64623;44.738;37.804;2023-06-26T06:10:06;13.76;118.99
75296;DHT22;64623;44.738;37.804;2023-06-26T06:11:09;13.65;118.99
75296;DHT22;64623;44.738;37.804;2023-06-26T06:12:12;13.69;118.99
75296;DHT22;64623;44.738;37.804;2023-06-26T06:13:15;13.40;118.99
75296;DHT22;64623;44.738;37.804;2023-06-26T06:14:18;13.37;118.99
75296;DHT22;64623;44.738;37.804;2023-06-26T06:15:21;13.36;118.99
75296;DHT22;64623;44.738;37.804;2023-06-26T06:16:25;13.56;118.99
75296;DHT22;64623;44.738;37.804;2023-06-26T06:17:28;13.47;118.99
75296;DHT22;64623;44.738;37.804;2023-06-26T06:18:31;13.49;118.99
75296;DHT22;64623;44.738;37.804;2023-06-26T06:19:34;13.44;118.99
75296;DHT22;64623;44.738;37.804;2023-06-26T06:20:37;13.21;118.99
75296;DHT22;64623;44.738;37.804;2023-06-26T06:21:41;13.12;118.99
75296;DHT22;64623;44.738;37.804;2023-06-26T06:22:44;13.09;118.99
75296;DHT22;64623;44.738;37.804;2023-06-26T06:23:47;12.99;118.99
75296;DHT22;64623;44.738;37.804;2023-06-26T06:24:50;12.95;118.99
75296;DHT22;64623;44.738;37.804;2023-06-26T06:25:53;12.82;118.99
75296;DHT22;64623;44.738;37.804;2023-06-26T06:26:56;12.77;118.99
75296;DHT22;64623;44.738;37.804;2023-06-26T06:27:59;12.58;118.99
75296;DHT22;64623;44.738;37.804;2023-06-26T06:29:03;12.45;118.99
75296;DHT22;64623;44.738;37.804;2023-06-26T06:30:06;11.91;118.99
75296;DHT22;64623;44.738;37.804;2023-06-26T06:31:10;12.01;118.99
75296;DHT22;64623;44.738;37.804;2023-06-26T06:32:13;12.00;118.99
75296;DHT22;64623;44.738;37.804;2023-06-26T06:33:16;12.03;118.99
75296;DHT22;64623;44.738;37.804;2023-06-26T06:34:19;12.17;118.99
75296;DHT22;64623;44.738;37.804;2023-06-26T06:35:22;12.03;118.99
75296;DHT22;64623;44.738;37.804;2023-06-26T06:36:28;12.22;118.99
75296;DHT22;64623;44.738;37.804;2023-06-26T06:37:31;12.31;118.99
75296;DHT22;64623;44.738;37.804;2023-06-26T06:38:34;12.48;118.99
75296;DHT22;64623;44.738;37.804;2023-06-26T06:39:37;12.07;118.99
75296;DHT22;64623;44.738;37.804;2023-06-26T06:40:40;12.42;118.99
75296;DHT22;64623;44.738;37.804;2023-06-26T06:41:43;12.13;118.99
75296;DHT22;64623;44.738;37.804;2023-06-26T06:42:46;12.57;118.99